Time;durP1;ratioP1;P1;durP2;ratioP2;P2;SDS_P1;SDS_P2;PMS_P1;PMS_P2;Temp;Humidity;BMP_temperature;BMP_pressure;BME280_temperature;BME280_humidity;BME280_pressure;Samples;Min_cycle;Max_cycle;Signal;HPM_P1;HPM_P2
2023/02/18 00:00:44;;;;;;;3.40;1.47;;;;;;;11.65;100.00;97162.78;5057659;28;20937;-65
2023/02/18 00:03:10;;;;;;;5.93;3.00;;;;;;;11.55;100.00;97159.44;5057979;28;20224;-66
2023/02/18 00:05:37;;;;;;;2.60;1.60;;;;;;;11.63;100.00;97156.81;5057861;28;20206;-67
2023/02/18 00:08:04;;;;;;;4.90;1.67;;;;;;;11.63;100.00;97156.81;5058257;28;20235;-67
2023/02/18 00:10:30;;;;;;;2.00;1.07;;;;;;;11.66;100.00;97161.81;5058015;28;20212;-66
2023/02/18 00:12:57;;;;;;;1.83;1.27;;;;;;;11.67;100.00;97163.44;5058584;28;20232;-67
2023/02/18 00:15:23;;;;;;;4.00;1.70;;;;;;;11.72;100.00;97163.78;5057372;28;20208;-67
2023/02/18 00:17:51;;;;;;;2.33;1.43;;;;;;;11.80;100.00;97166.44;5058102;28;20200;-67
2023/02/18 00:20:17;;;;;;;3.67;1.80;;;;;;;11.70;100.00;97173.69;5058498;28;20208;-67
2023/02/18 00:22:44;;;;;;;2.50;1.70;;;;;;;11.75;100.00;97163.47;5058467;28;20234;-68
2023/02/18 00:25:10;;;;;;;2.00;1.20;;;;;;;11.79;100.00;97170.91;5058236;28;20204;-67
2023/02/18 00:27:37;;;;;;;3.20;1.67;;;;;;;11.80;100.00;97166.44;5059040;28;20204;-67
2023/02/18 00:30:04;;;;;;;3.27;1.50;;;;;;;11.75;100.00;97156.38;5059415;28;20205;-67
2023/02/18 00:32:31;;;;;;;4.80;1.50;;;;;;;11.76;100.00;97162.47;5059651;28;20232;-68
2023/02/18 00:34:58;;;;;;;3.47;1.80;;;;;;;11.87;100.00;97162.16;5058672;28;20197;-67
2023/02/18 00:37:25;;;;;;;2.13;1.47;;;;;;;11.84;100.00;97170.44;5058813;28;20205;-65
2023/02/18 00:39:52;;;;;;;2.43;1.30;;;;;;;11.77;100.00;97161.47;5059579;28;20241;-65
2023/02/18 00:42:18;;;;;;;3.00;1.47;;;;;;;11.76;100.00;97160.66;5059305;28;20591;-67
2023/02/18 00:44:45;;;;;;;7.07;1.17;;;;;;;11.77;100.00;97158.84;5058114;28;20201;-66
2023/02/18 00:47:11;;;;;;;3.70;1.70;;;;;;;11.83;100.00;97152.91;5058775;28;20196;-68
2023/02/18 00:49:38;;;;;;;3.00;1.23;;;;;;;11.80;100.00;97153.22;5059259;28;20200;-68
2023/02/18 00:52:06;;;;;;;2.93;2.00;;;;;;;11.88;100.00;97158.53;5058631;28;20220;-67
2023/02/18 00:54:32;;;;;;;3.10;1.53;;;;;;;11.80;100.00;97142.66;5057616;28;20696;-68
2023/02/18 00:56:59;;;;;;;2.17;1.30;;;;;;;11.88;100.00;97140.06;5059018;28;20331;-67
2023/02/18 00:59:25;;;;;;;2.67;1.60;;;;;;;11.87;100.00;97138.41;5058102;28;20200;-66
2023/02/18 01:01:52;;;;;;;3.50;1.43;;;;;;;11.86;100.00;97132.31;5058058;28;20224;-66
2023/02/18 01:04:18;;;;;;;1.90;1.10;;;;;;;11.91;100.00;97134.44;5056843;28;20672;-67
2023/02/18 01:06:44;;;;;;;3.00;1.20;;;;;;;11.91;100.00;97134.44;5057792;28;20216;-66
2023/02/18 01:09:12;;;;;;;2.97;1.20;;;;;;;11.96;100.00;97132.94;5057868;28;20209;-68
2023/02/18 01:11:39;;;;;;;2.40;1.40;;;;;;;11.87;100.00;97135.75;5057524;28;20246;-68
2023/02/18 01:14:05;;;;;;;1.60;1.30;;;;;;;11.68;100.00;97130.75;5057055;28;20196;-67
2023/02/18 01:16:32;;;;;;;3.97;2.03;;;;;;;11.74;100.00;97130.94;5058502;28;20208;-67
2023/02/18 01:18:58;;;;;;;1.77;1.20;;;;;;;11.69;100.00;97129.78;5058226;28;20201;-67
2023/02/18 01:21:25;;;;;;;1.53;1.20;;;;;;;11.74;100.00;97127.50;5058126;28;20196;-67
2023/02/18 01:23:51;;;;;;;1.80;1.00;;;;;;;11.69;100.00;97127.97;5057790;28;20227;-68
2023/02/18 01:26:19;;;;;;;2.70;1.30;;;;;;;11.68;100.00;97126.34;5057907;28;20201;-68
2023/02/18 01:28:46;;;;;;;4.73;1.30;;;;;;;11.69;100.00;97124.50;5058086;28;20243;-66
2023/02/18 01:31:14;;;;;;;2.37;1.40;;;;;;;11.72;100.00;97108.31;5058199;28;21202;-66
2023/02/18 01:33:41;;;;;;;1.03;0.90;;;;;;;11.68;100.00;97102.56;5056912;28;20203;-67
2023/02/18 01:36:09;;;;;;;3.10;1.07;;;;;;;11.68;100.00;97113.13;5058221;28;20197;-67
2023/02/18 01:38:36;;;;;;;2.23;1.60;;;;;;;11.61;100.00;97108.66;5057651;28;20207;-67
2023/02/18 01:41:03;;;;;;;2.20;1.20;;;;;;;11.56;100.00;97103.03;5057433;28;20211;-66
2023/02/18 01:43:32;;;;;;;2.63;1.27;;;;;;;11.59;100.00;97118.53;5057267;28;20228;-67
2023/02/18 01:46:14;;;;;;;4.07;1.87;;;;;;;11.65;100.00;97120.53;5057403;28;20196;-67
2023/02/18 01:48:43;;;;;;;4.40;1.83;;;;;;;11.57;100.00;97115.25;5057463;28;20231;-68
2023/02/18 01:51:13;;;;;;;3.57;1.60;;;;;;;11.60;100.00;97109.63;5057307;28;20193;-68
2023/02/18 01:53:46;;;;;;;2.97;1.40;;;;;;;11.56;100.00;97118.88;5056779;28;20192;-67
2023/02/18 01:56:20;;;;;;;2.13;1.37;;;;;;;11.63;100.00;97120.72;5057298;28;20212;-67
2023/02/18 01:58:49;;;;;;;5.73;1.67;;;;;;;11.64;100.00;97111.78;5056931;28;20665;-68
2023/02/18 02:01:16;;;;;;;2.90;1.37;;;;;;;11.46;100.00;97115.50;5057071;28;20809;-67
2023/02/18 02:03:42;;;;;;;2.70;1.60;;;;;;;11.54;100.00;97110.28;5056366;28;20224;-67
2023/02/18 02:06:16;;;;;;;2.67;1.67;;;;;;;11.55;100.00;97098.72;5057002;28;20200;-66
2023/02/18 02:08:44;;;;;;;3.57;1.40;;;;;;;11.49;100.00;97088.78;5057674;28;20208;-68
2023/02/18 02:11:21;;;;;;;3.93;1.90;;;;;;;11.65;100.00;97100.22;5057380;28;20205;-67
2023/02/18 02:14:02;;;;;;;3.23;1.73;;;;;;;11.47;100.00;97090.78;5056666;28;20203;-66
2023/02/18 02:16:35;;;;;;;1.83;1.43;;;;;;;11.52;100.00;97085.88;5057534;28;20212;-68
2023/02/18 02:19:18;;;;;;;3.23;1.73;;;;;;;11.56;100.00;97087.19;5057118;28;20680;-67
2023/02/18 02:22:17;;;;;;;3.77;2.00;;;;;;;11.55;100.00;97085.53;5056260;28;20227;-66
2023/02/18 02:25:10;;;;;;;1.90;1.23;;;;;;;11.57;100.00;97081.75;5056741;28;20196;-65
2023/02/18 02:28:11;;;;;;;3.80;2.00;;;;;;;11.50;100.00;97079.91;5056764;28;20193;-65
2023/02/18 02:30:58;;;;;;;3.80;2.27;;;;;;;11.52;100.00;97069.19;5046939;28;20197;-68
2023/02/18 02:34:00;;;;;;;2.20;1.27;;;;;;;11.59;100.00;97078.94;5057012;28;20220;-68
2023/02/18 02:36:35;;;;;;;2.10;1.43;;;;;;;11.48;100.00;97076.59;5045527;28;20207;-66
2023/02/18 02:39:11;;;;;;;4.17;1.40;;;;;;;11.49;100.00;97080.06;5057804;28;20203;-68
2023/02/18 02:41:46;;;;;;;1.40;0.87;;;;;;;11.49;100.00;97075.59;5057223;28;20250;-67
2023/02/18 02:44:20;;;;;;;1.57;1.30;;;;;;;11.51;100.00;97065.75;5055798;28;20220;-66
2023/02/18 02:46:51;;;;;;;2.57;1.67;;;;;;;11.54;100.00;97065.41;5057046;28;20204;-65
2023/02/18 02:49:28;;;;;;;2.07;1.30;;;;;;;11.48;100.00;97068.69;5057537;28;20204;-68
2023/02/18 02:52:03;;;;;;;2.80;1.40;;;;;;;11.49;100.00;97057.09;5056852;28;20624;-66
2023/02/18 02:54:31;;;;;;;2.47;1.37;;;;;;;11.51;100.00;97060.47;5056784;28;20676;-68
2023/02/18 02:57:07;;;;;;;3.13;1.20;;;;;;;11.52;100.00;97054.19;5057323;28;20203;-67
2023/02/18 02:59:37;;;;;;;1.40;1.00;;;;;;;11.50;100.00;97065.91;5057032;28;20289;-67
2023/02/18 03:02:20;;;;;;;2.03;1.10;;;;;;;11.55;100.00;97059.13;5057092;28;20244;-67
2023/02/18 03:05:06;;;;;;;3.20;1.50;;;;;;;11.56;100.00;97058.16;5056394;28;20216;-67
2023/02/18 03:07:56;;;;;;;1.37;1.00;;;;;;;11.55;100.00;97049.41;5056526;28;20217;-68
2023/02/18 03:10:41;;;;;;;4.97;1.53;;;;;;;11.56;100.00;97050.25;5058629;28;20197;-68
2023/02/18 03:13:16;;;;;;;2.13;1.27;;;;;;;11.48;100.00;97059.91;5060497;28;20227;-66
2023/02/18 03:15:49;;;;;;;3.10;1.30;;;;;;;11.53;100.00;97055.81;5060223;28;20207;-67
2023/02/18 03:18:25;;;;;;;1.70;1.37;;;;;;;11.50;100.00;97050.88;5057955;28;20200;-67
2023/02/18 03:20:55;;;;;;;1.97;1.40;;;;;;;11.43;100.00;97063.06;5060848;28;20204;-67
2023/02/18 03:23:28;;;;;;;2.60;1.40;;;;;;;11.45;100.00;97063.72;5060605;28;20231;-67
2023/02/18 03:25:56;;;;;;;1.87;1.23;;;;;;;11.37;100.00;97060.25;5060189;28;20627;-65
2023/02/18 03:28:27;;;;;;;4.73;1.70;;;;;;;11.38;100.00;97054.81;5059634;28;20246;-66
2023/02/18 03:30:58;;;;;;;3.03;1.60;;;;;;;11.46;100.00;97049.53;5059680;28;20208;-68
2023/02/18 03:33:28;;;;;;;1.27;1.07;;;;;;;11.34;100.00;97055.28;5060517;28;20572;-68
2023/02/18 03:35:56;;;;;;;6.67;1.90;;;;;;;11.29;100.00;97050.50;5059410;28;20193;-68
2023/02/18 03:38:31;;;;;;;5.73;1.67;;;;;;;11.37;100.00;97045.22;5059378;28;20568;-67
2023/02/18 03:40:57;;;;;;;3.73;1.70;;;;;;;11.31;100.00;97045.88;5060143;28;20219;-68
2023/02/18 03:43:24;;;;;;;3.50;1.70;;;;;;;11.21;100.00;97039.91;5059911;28;20251;-68
2023/02/18 03:45:51;;;;;;;2.83;1.90;;;;;;;11.22;100.00;97041.56;5059827;28;20204;-68
2023/02/18 03:48:17;;;;;;;2.77;1.60;;;;;;;11.27;100.00;97038.44;5059970;28;20205;-68
2023/02/18 03:50:44;;;;;;;5.63;1.83;;;;;;;11.21;100.00;97037.25;5059831;28;20204;-68
2023/02/18 03:53:10;;;;;;;4.17;2.23;;;;;;;11.24;100.00;97033.47;5059763;28;20236;-67
2023/02/18 03:55:38;;;;;;;1.73;1.33;;;;;;;11.30;100.00;97032.84;5058750;28;20231;-67
2023/02/18 03:58:04;;;;;;;4.27;1.70;;;;;;;11.23;100.00;97037.94;5059523;28;20200;-68
2023/02/18 04:00:31;;;;;;;2.27;1.40;;;;;;;11.15;100.00;97047.63;5059314;28;20209;-66
2023/02/18 04:02:58;;;;;;;2.37;1.53;;;;;;;11.18;100.00;97034.97;5059471;28;20239;-68
2023/02/18 04:05:24;;;;;;;3.37;1.40;;;;;;;11.17;100.00;97037.75;5059223;28;20208;-67
2023/02/18 04:07:51;;;;;;;2.43;1.37;;;;;;;11.07;100.00;97037.91;5059512;28;20216;-68
2023/02/18 04:10:19;;;;;;;3.87;1.60;;;;;;;11.12;100.00;97040.88;5059398;28;20200;-69
2023/02/18 04:12:47;;;;;;;1.93;1.30;;;;;;;11.18;100.00;97044.69;5059492;28;20224;-66
2023/02/18 04:15:14;;;;;;;1.77;1.30;;;;;;;11.08;100.00;97050.09;5059119;28;20200;-67
2023/02/18 04:17:40;;;;;;;1.90;1.30;;;;;;;11.12;100.00;97051.41;5060752;28;20633;-69
2023/02/18 04:20:08;;;;;;;1.47;1.20;;;;;;;11.27;100.00;97043.72;5059269;28;20201;-67
2023/02/18 04:22:34;;;;;;;2.77;1.40;;;;;;;11.26;100.00;97052.63;5059345;28;20220;-69
2023/02/18 04:25:01;;;;;;;3.77;1.10;;;;;;;11.17;100.00;97051.75;5058924;28;20294;-68
2023/02/18 04:27:27;;;;;;;3.07;1.67;;;;;;;11.21;100.00;97058.38;5059011;28;20208;-66
2023/02/18 04:29:55;;;;;;;2.27;1.03;;;;;;;11.30;100.00;97056.59;5059536;28;20203;-67
2023/02/18 04:32:22;;;;;;;1.70;1.07;;;;;;;11.26;100.00;97042.88;5059012;28;20607;-68
2023/02/18 04:34:48;;;;;;;1.17;0.97;;;;;;;11.27;100.00;97049.00;5058466;28;20193;-67
2023/02/18 04:37:15;;;;;;;2.20;1.20;;;;;;;11.21;100.00;97041.72;5059553;28;20200;-68
2023/02/18 04:39:41;;;;;;;1.27;1.10;;;;;;;11.28;100.00;97048.84;5058014;28;20201;-68
2023/02/18 04:42:09;;;;;;;2.63;0.90;;;;;;;11.28;100.00;97053.31;5058707;28;20228;-67
2023/02/18 04:44:35;;;;;;;2.23;1.00;;;;;;;11.24;100.00;97055.44;5058696;28;20235;-68
2023/02/18 04:47:03;;;;;;;1.90;1.20;;;;;;;11.35;100.00;97052.47;5058618;28;20204;-67
2023/02/18 04:49:30;;;;;;;1.40;0.53;;;;;;;11.27;100.00;97054.28;5058469;28;20204;-67
2023/02/18 04:51:57;;;;;;;1.47;0.93;;;;;;;11.30;100.00;97056.59;5058721;28;20220;-66
2023/02/18 04:54:23;;;;;;;1.20;1.10;;;;;;;11.38;100.00;97046.03;5058766;28;20756;-68
2023/02/18 04:56:50;;;;;;;2.70;1.33;;;;;;;11.27;100.00;97046.38;5058021;28;20672;-69
2023/02/18 04:59:17;;;;;;;2.20;1.43;;;;;;;11.30;100.00;97041.59;5058887;28;20212;-67
2023/02/18 05:01:43;;;;;;;1.47;1.03;;;;;;;11.17;100.00;97033.28;5059445;28;20740;-68
2023/02/18 05:04:11;;;;;;;2.00;1.10;;;;;;;11.29;100.00;97032.03;5057968;28;20224;-69
2023/02/18 05:06:38;;;;;;;2.43;1.37;;;;;;;11.23;100.00;97040.56;5058322;28;20207;-69
2023/02/18 05:09:05;;;;;;;1.70;1.00;;;;;;;11.23;100.00;97040.56;5058803;28;20200;-67
2023/02/18 05:11:31;;;;;;;2.43;1.47;;;;;;;11.19;100.00;97033.97;5058209;28;20303;-68
2023/02/18 05:13:58;;;;;;;2.00;1.43;;;;;;;11.19;100.00;97041.88;5057803;28;20196;-67
2023/02/18 05:16:24;;;;;;;1.90;1.30;;;;;;;11.26;100.00;97032.31;5057953;28;20314;-67
2023/02/18 05:18:51;;;;;;;1.87;1.00;;;;;;;11.16;100.00;97030.81;5058078;28;20203;-66
2023/02/18 05:21:19;;;;;;;2.17;1.50;;;;;;;11.17;100.00;97030.66;5057291;28;20209;-68
2023/02/18 05:23:45;;;;;;;1.77;1.30;;;;;;;11.10;100.00;97037.59;5057588;28;20216;-68
2023/02/18 05:26:12;;;;;;;2.60;1.43;;;;;;;11.08;100.00;97028.97;5057556;28;20196;-67
2023/02/18 05:28:38;;;;;;;1.30;1.10;;;;;;;10.97;100.00;97031.94;5057845;28;20207;-66
2023/02/18 05:31:05;;;;;;;2.37;0.93;;;;;;;11.00;100.00;97041.34;5058331;28;20207;-69
2023/02/18 05:33:32;;;;;;;1.77;1.40;;;;;;;10.94;100.00;97037.50;5056631;28;20224;-68
2023/02/18 05:35:58;;;;;;;1.50;1.10;;;;;;;10.96;100.00;97042.66;5057679;28;20216;-67
2023/02/18 05:38:26;;;;;;;2.53;1.13;;;;;;;11.03;100.00;97051.56;5058167;28;20200;-68
2023/02/18 05:40:52;;;;;;;1.57;0.80;;;;;;;10.86;100.00;97059.56;5057273;28;20685;-66
2023/02/18 05:43:19;;;;;;;2.00;1.37;;;;;;;10.82;100.00;97053.81;5057575;28;20216;-68
2023/02/18 05:45:45;;;;;;;1.37;1.07;;;;;;;10.89;100.00;97059.25;5057390;28;20696;-67
2023/02/18 05:48:12;;;;;;;1.87;0.93;;;;;;;10.89;100.00;97057.44;5056857;28;20213;-66
2023/02/18 05:50:39;;;;;;;2.43;1.13;;;;;;;10.88;100.00;97057.59;5057767;28;20203;-68
2023/02/18 05:53:05;;;;;;;1.77;1.20;;;;;;;10.92;100.00;97061.56;5058160;28;20220;-68
2023/02/18 05:55:36;;;;;;;2.33;1.03;;;;;;;10.96;100.00;97063.75;5057029;28;20200;-68
2023/02/18 05:58:03;;;;;;;1.63;1.20;;;;;;;10.93;100.00;97060.59;5057615;28;20251;-69
2023/02/18 06:00:30;;;;;;;1.60;1.20;;;;;;;10.94;100.00;97069.16;5057771;28;20205;-66
2023/02/18 06:02:57;;;;;;;2.20;1.30;;;;;;;10.89;100.00;97069.81;5057560;28;20307;-67
2023/02/18 06:05:23;;;;;;;1.50;0.97;;;;;;;10.87;100.00;97063.84;5056859;28;20220;-68
2023/02/18 06:07:50;;;;;;;1.73;1.13;;;;;;;10.90;100.00;97066.19;5057027;28;21054;-67
2023/02/18 06:10:17;;;;;;;1.67;1.23;;;;;;;10.94;100.00;97058.59;5057562;28;20197;-67
2023/02/18 06:12:45;;;;;;;2.20;1.30;;;;;;;11.02;100.00;97066.56;5056743;28;20562;-68
2023/02/18 06:15:11;;;;;;;2.03;1.27;;;;;;;10.89;100.00;97061.91;5056649;28;20192;-66
2023/02/18 06:17:38;;;;;;;2.87;1.07;;;;;;;10.84;100.00;97056.28;5057964;28;20197;-68
2023/02/18 06:20:05;;;;;;;1.20;0.70;;;;;;;10.95;100.00;97065.53;5058657;28;20205;-69
2023/02/18 06:22:32;;;;;;;2.47;1.50;;;;;;;10.91;100.00;97062.56;5058343;28;20232;-67
2023/02/18 06:24:58;;;;;;;1.63;1.10;;;;;;;11.00;100.00;97076.44;5057832;28;20227;-69
2023/02/18 06:27:25;;;;;;;2.83;1.30;;;;;;;10.93;100.00;97062.25;5059585;28;20200;-67
2023/02/18 06:29:53;;;;;;;1.57;1.10;;;;;;;10.99;100.00;97071.34;5059346;28;20268;-68
2023/02/18 06:32:19;;;;;;;1.87;1.20;;;;;;;11.03;100.00;97062.94;5058318;28;20771;-68
2023/02/18 06:34:46;;;;;;;2.70;1.50;;;;;;;10.84;100.00;97064.19;5057830;28;20197;-67
2023/02/18 06:37:12;;;;;;;2.83;1.70;;;;;;;10.92;100.00;97059.78;5058178;28;20747;-67
2023/02/18 06:39:39;;;;;;;2.77;1.60;;;;;;;10.98;100.00;97049.41;5059205;28;20579;-68
2023/02/18 06:42:06;;;;;;;3.10;2.03;;;;;;;10.94;100.00;97055.16;5059343;28;20219;-69
2023/02/18 06:44:32;;;;;;;3.33;1.37;;;;;;;10.92;100.00;97049.25;5059968;28;20227;-68
2023/02/18 06:47:00;;;;;;;1.83;1.10;;;;;;;11.03;100.00;97048.94;5062446;28;20211;-68
2023/02/18 06:49:27;;;;;;;1.87;1.10;;;;;;;10.98;100.00;97052.06;5062703;28;20204;-68
2023/02/18 06:51:53;;;;;;;2.40;1.30;;;;;;;10.95;100.00;97048.91;5063667;28;20224;-67
2023/02/18 06:54:20;;;;;;;1.90;1.10;;;;;;;10.99;100.00;97051.06;5062382;28;20196;-67
2023/02/18 06:56:47;;;;;;;2.40;1.13;;;;;;;11.03;100.00;97046.28;5062709;28;20201;-68
2023/02/18 06:59:13;;;;;;;1.60;1.10;;;;;;;11.00;100.00;97052.72;5062686;28;20584;-69
2023/02/18 07:01:40;;;;;;;1.77;0.93;;;;;;;10.93;100.00;97041.16;5063120;28;20243;-67
2023/02/18 07:04:08;;;;;;;1.77;1.23;;;;;;;11.12;100.00;97051.41;5061145;28;20223;-69
2023/02/18 07:06:34;;;;;;;1.23;0.93;;;;;;;11.05;100.00;97050.41;5062228;28;20215;-66
2023/02/18 07:09:01;;;;;;;1.47;0.97;;;;;;;11.02;100.00;97049.91;5062553;28;20204;-69
2023/02/18 07:11:27;;;;;;;1.20;0.80;;;;;;;11.07;100.00;97059.00;5062589;28;20624;-67
2023/02/18 07:13:54;;;;;;;1.10;1.00;;;;;;;11.14;100.00;97056.56;5061144;28;20200;-68
2023/02/18 07:16:20;;;;;;;5.07;1.23;;;;;;;11.22;100.00;97061.84;5061409;28;20586;-69
2023/02/18 07:18:47;;;;;;;0.90;0.80;;;;;;;11.24;100.00;97059.84;5062171;28;20208;-69
2023/02/18 07:21:15;;;;;;;1.50;0.97;;;;;;;11.17;100.00;97064.13;5062311;28;20208;-69
2023/02/18 07:23:41;;;;;;;1.20;0.83;;;;;;;11.21;100.00;97061.00;5060418;28;20208;-68
2023/02/18 07:26:10;;;;;;;3.43;1.10;;;;;;;11.29;100.00;97054.94;5061070;28;20224;-67
2023/02/18 07:28:37;;;;;;;1.40;0.97;;;;;;;11.29;100.00;97062.84;5060728;28;20197;-66
2023/02/18 07:31:04;;;;;;;1.47;0.90;;;;;;;11.39;100.00;97059.09;5061081;28;20230;-67
2023/02/18 07:33:31;;;;;;;0.90;0.80;;;;;;;11.47;100.00;97056.47;5061368;28;20220;-68
2023/02/18 07:35:59;;;;;;;1.30;0.77;;;;;;;11.52;100.00;97058.63;5060424;28;20201;-69
2023/02/18 07:38:28;;;;;;;2.07;1.03;;;;;;;11.55;100.00;97053.06;5061468;28;20204;-67
2023/02/18 07:40:55;;;;;;;2.23;1.17;;;;;;;11.47;100.00;97056.47;5060779;28;20208;-67
2023/02/18 07:43:22;;;;;;;0.97;0.80;;;;;;;11.54;100.00;97051.38;5060868;28;20597;-68
2023/02/18 07:45:49;;;;;;;2.70;1.10;;;;;;;11.46;100.00;97038.97;5060046;28;21043;-67
2023/02/18 07:48:16;;;;;;;1.80;1.07;;;;;;;11.46;100.00;97044.25;5060375;28;20197;-67
2023/02/18 07:50:45;;;;;;;3.53;2.40;;;;;;;11.57;100.00;97049.25;5059920;28;20200;-67
2023/02/18 07:53:12;;;;;;;2.77;1.93;;;;;;;11.57;100.00;97052.72;5060336;28;20227;-68
2023/02/18 07:55:49;;;;;;;4.13;1.47;;;;;;;11.67;100.00;97045.47;5059462;28;20201;-68
2023/02/18 07:58:17;;;;;;;2.43;1.73;;;;;;;11.67;100.00;97044.63;5060352;28;20287;-67
2023/02/18 08:00:46;;;;;;;2.10;1.50;;;;;;;11.58;100.00;97040.31;5060749;28;20208;-67
2023/02/18 08:03:12;;;;;;;1.83;1.43;;;;;;;11.65;100.00;97036.06;5061295;28;20225;-69
2023/02/18 08:05:39;;;;;;;1.77;1.30;;;;;;;11.64;100.00;97031.75;5060704;28;20220;-69
2023/02/18 08:08:05;;;;;;;2.73;1.30;;;;;;;11.53;100.00;97029.44;5060902;28;20224;-69
2023/02/18 08:10:32;;;;;;;2.00;1.40;;;;;;;11.56;100.00;97039.69;5060161;28;20212;-69
2023/02/18 08:13:00;;;;;;;1.47;1.10;;;;;;;11.73;100.00;97026.31;5060935;28;20235;-68
2023/02/18 08:15:26;;;;;;;3.10;1.90;;;;;;;11.65;100.00;97028.94;5060670;28;20287;-68
2023/02/18 08:17:53;;;;;;;2.30;1.33;;;;;;;11.58;100.00;97024.50;5060183;28;20217;-69
2023/02/18 08:20:20;;;;;;;1.90;1.40;;;;;;;11.72;100.00;97029.13;5060543;28;20204;-69
2023/02/18 08:22:46;;;;;;;1.27;0.90;;;;;;;11.71;100.00;97038.88;5061517;28;20246;-68
2023/02/18 08:25:13;;;;;;;2.90;1.50;;;;;;;11.79;100.00;97022.22;5060020;28;20230;-69
2023/02/18 08:27:39;;;;;;;1.37;0.67;;;;;;;11.61;100.00;97029.47;5060191;28;20196;-68
2023/02/18 08:30:09;;;;;;;2.60;1.20;;;;;;;11.82;100.00;97024.50;5060053;28;20208;-69
2023/02/18 08:32:35;;;;;;;0.87;0.80;;;;;;;11.79;100.00;97019.56;5059650;28;20236;-68
2023/02/18 08:35:02;;;;;;;1.17;0.97;;;;;;;11.87;100.00;97024.84;5059484;28;20207;-69
2023/02/18 08:37:29;;;;;;;1.73;1.00;;;;;;;11.92;100.00;97009.31;5060087;28;20212;-68
2023/02/18 08:39:56;;;;;;;2.23;0.87;;;;;;;11.82;100.00;97024.50;5059222;28;20207;-69
2023/02/18 08:42:22;;;;;;;0.73;0.70;;;;;;;11.82;100.00;97022.66;5059655;28;20221;-68
2023/02/18 08:44:48;;;;;;;2.53;0.83;;;;;;;11.87;100.00;97023.00;5059128;28;20224;-67
2023/02/18 08:47:16;;;;;;;1.17;0.73;;;;;;;11.98;100.00;97019.22;5059149;28;20196;-68
2023/02/18 08:49:43;;;;;;;1.47;1.13;;;;;;;12.01;100.00;97021.53;5060610;28;20794;-69
2023/02/18 08:52:09;;;;;;;1.33;1.00;;;;;;;11.82;100.00;97008.66;5059346;28;20227;-67
2023/02/18 08:54:36;;;;;;;0.77;0.70;;;;;;;11.93;100.00;97008.34;5058873;28;20787;-68
2023/02/18 08:57:03;;;;;;;2.23;0.97;;;;;;;11.99;100.00;97011.13;5059159;28;20200;-67
2023/02/18 08:59:29;;;;;;;0.70;0.50;;;;;;;11.97;100.00;97017.56;5059510;28;20254;-69
2023/02/18 09:01:56;;;;;;;0.77;0.67;;;;;;;12.05;100.00;97015.72;5059796;28;20224;-68
2023/02/18 09:04:23;;;;;;;1.03;0.80;;;;;;;12.18;100.00;97002.81;5058046;28;20197;-69
2023/02/18 09:06:50;;;;;;;1.20;0.80;;;;;;;12.18;100.00;97008.94;5059829;28;20583;-69
2023/02/18 09:09:17;;;;;;;0.63;0.63;;;;;;;12.19;100.00;96997.41;5059042;28;20201;-67
2023/02/18 09:11:44;;;;;;;2.30;1.20;;;;;;;12.35;99.54;96997.34;5059935;28;20241;-69
2023/02/18 09:14:11;;;;;;;1.13;0.90;;;;;;;12.22;98.97;96990.94;5058681;28;20208;-68
2023/02/18 09:16:39;;;;;;;1.37;1.00;;;;;;;12.35;98.69;96985.94;5058062;28;20220;-68
2023/02/18 09:19:06;;;;;;;2.27;1.10;;;;;;;12.27;98.61;96984.16;5058933;28;20218;-67
2023/02/18 09:21:34;;;;;;;1.93;1.17;;;;;;;12.41;97.88;96974.69;5058749;28;20204;-68
2023/02/18 09:24:00;;;;;;;3.47;1.00;;;;;;;12.48;97.40;96980.94;5059130;28;20291;-69
2023/02/18 09:26:27;;;;;;;1.00;0.80;;;;;;;12.45;96.95;96971.53;5058172;28;20732;-69
2023/02/18 09:28:56;;;;;;;0.73;0.60;;;;;;;12.65;96.29;96966.66;5058054;28;20287;-67
2023/02/18 09:31:24;;;;;;;2.50;1.60;;;;;;;12.69;96.05;96968.81;5058219;28;20196;-68
2023/02/18 09:33:55;;;;;;;2.30;1.50;;;;;;;12.79;95.90;96966.75;5058200;28;20771;-68
2023/02/18 09:36:22;;;;;;;2.93;2.00;;;;;;;12.79;96.08;96969.41;5058397;28;20201;-69
2023/02/18 09:38:50;;;;;;;3.87;1.60;;;;;;;12.89;95.25;96964.75;5057342;28;20664;-69
2023/02/18 09:41:29;;;;;;;2.63;0.90;;;;;;;12.85;94.55;96952.84;5057504;28;20212;-69
2023/02/18 09:43:59;;;;;;;3.10;1.60;;;;;;;13.00;94.06;96964.38;5056314;28;20204;-69
2023/02/18 09:46:31;;;;;;;4.30;1.60;;;;;;;13.00;94.45;96956.44;5057441;28;20228;-69
2023/02/18 09:49:00;;;;;;;4.70;1.70;;;;;;;13.12;94.11;96955.03;5058839;28;20196;-69
2023/02/18 09:51:27;;;;;;;3.03;1.33;;;;;;;13.05;93.96;96956.75;5056711;28;20657;-67
2023/02/18 09:53:55;;;;;;;2.47;1.13;;;;;;;13.23;93.35;96958.09;5054597;28;20220;-67
2023/02/18 09:56:27;;;;;;;2.77;1.10;;;;;;;13.31;92.27;96957.22;5055986;28;20204;-69
2023/02/18 09:58:54;;;;;;;1.93;0.90;;;;;;;13.31;92.13;96954.56;5056268;28;20677;-69
2023/02/18 10:01:28;;;;;;;2.33;1.23;;;;;;;13.18;91.39;96963.09;5055396;28;20205;-69
2023/02/18 10:03:55;;;;;;;3.73;0.97;;;;;;;13.21;91.09;96959.28;5055663;28;20201;-67
2023/02/18 10:06:25;;;;;;;6.87;1.00;;;;;;;13.28;90.60;96957.59;5056278;28;20724;-68
2023/02/18 10:08:55;;;;;;;1.23;0.80;;;;;;;13.37;89.95;96951.25;5056980;28;20204;-68
2023/02/18 10:11:28;;;;;;;1.10;0.70;;;;;;;13.29;88.84;96945.97;5056491;28;20623;-67
2023/02/18 10:13:56;;;;;;;0.73;0.70;;;;;;;13.32;88.94;96930.56;5055136;28;20200;-68
2023/02/18 10:16:24;;;;;;;1.20;0.80;;;;;;;13.40;88.11;96923.41;5056678;28;20193;-68
2023/02/18 10:18:54;;;;;;;1.63;1.07;;;;;;;13.42;88.24;96937.28;5055610;28;20205;-68
2023/02/18 10:21:24;;;;;;;1.00;0.60;;;;;;;13.34;88.41;96930.38;5055270;28;20215;-67
2023/02/18 10:23:58;;;;;;;0.97;0.80;;;;;;;13.46;88.53;96930.63;5056059;28;20196;-68
2023/02/18 10:26:25;;;;;;;2.63;0.83;;;;;;;13.39;87.40;96927.03;5054878;28;20806;-67
2023/02/18 10:28:51;;;;;;;3.70;1.50;;;;;;;13.47;86.70;96912.94;5056030;28;20295;-68
2023/02/18 10:31:22;;;;;;;3.50;1.73;;;;;;;13.57;87.47;96905.56;5055646;28;20656;-68
2023/02/18 10:33:57;;;;;;;1.07;0.80;;;;;;;13.49;88.75;96913.56;5053996;28;20376;-68
2023/02/18 10:36:26;;;;;;;1.43;0.90;;;;;;;13.36;89.55;96909.88;5055655;28;20196;-67
2023/02/18 10:39:13;;;;;;;2.70;0.70;;;;;;;13.45;87.91;96913.09;5055215;28;20201;-67
2023/02/18 10:41:49;;;;;;;1.07;0.73;;;;;;;13.49;87.66;96905.59;5055631;28;20731;-68
2023/02/18 10:44:22;;;;;;;2.23;0.90;;;;;;;13.38;88.90;96907.84;5055222;28;20196;-68
2023/02/18 10:46:58;;;;;;;1.53;0.80;;;;;;;13.43;88.21;96899.22;5055425;28;20232;-66
2023/02/18 10:49:52;;;;;;;0.87;0.80;;;;;;;13.64;88.07;96887.94;5055481;28;20200;-68
2023/02/18 10:52:19;;;;;;;1.77;0.73;;;;;;;13.37;88.61;96906.22;5055493;28;20224;-68
2023/02/18 10:54:53;;;;;;;1.40;0.73;;;;;;;13.47;88.59;96892.56;5055620;28;20208;-67
2023/02/18 10:57:23;;;;;;;1.47;0.77;;;;;;;13.41;88.59;96890.59;5054511;28;20610;-66
2023/02/18 10:59:59;;;;;;;1.77;0.97;;;;;;;13.53;88.36;96888.34;5055157;28;20775;-67
2023/02/18 11:02:30;;;;;;;2.30;0.83;;;;;;;13.54;87.84;96893.50;5054881;28;20216;-67
2023/02/18 11:04:58;;;;;;;5.13;1.20;;;;;;;13.50;87.40;96896.66;5055458;28;20208;-68
2023/02/18 11:07:29;;;;;;;1.83;0.63;;;;;;;13.49;87.30;96892.38;5056492;28;20289;-68
2023/02/18 11:09:59;;;;;;;1.52;0.80;;;;;;;13.66;86.41;96886.75;5056006;28;20582;-68
2023/02/18 11:12:30;;;;;;;2.33;1.03;;;;;;;13.77;86.06;96899.56;5057201;28;20235;-67
2023/02/18 11:15:08;;;;;;;0.87;0.77;;;;;;;13.89;85.87;96886.72;5056090;28;20211;-69
2023/02/18 11:17:36;;;;;;;1.57;0.87;;;;;;;13.93;84.52;96888.00;5055361;28;20204;-68
2023/02/18 11:20:21;;;;;;;0.90;0.63;;;;;;;14.09;83.75;96899.25;5056432;28;20201;-67
2023/02/18 11:22:49;;;;;;;1.37;0.90;;;;;;;13.94;84.38;96879.84;5056722;28;20228;-68
2023/02/18 11:25:22;;;;;;;1.03;0.70;;;;;;;13.92;83.98;96902.22;5055296;28;20600;-66
2023/02/18 11:27:52;;;;;;;0.53;0.53;;;;;;;13.94;83.65;96898.41;5056477;28;20204;-69
2023/02/18 11:30:22;;;;;;;0.57;0.50;;;;;;;13.71;83.89;96880.91;5056691;28;20201;-67
2023/02/18 11:32:51;;;;;;;1.13;0.70;;;;;;;13.71;84.68;96876.44;5059842;28;20795;-67
2023/02/18 11:35:20;;;;;;;1.93;0.70;;;;;;;13.81;83.79;96877.00;5059160;28;20625;-69